ORBI Airport Information

Runway Information
Runway 15L Length 13124 ft width 197 ft
Elevation 113 ft Threshold 0 ft Heading 150
Runway 33R Length 13124 ft Width 197 ft
Elevation 110 ft Threshold 0 ft Heading 330
Runway 15R Length 10830 ft width 148 ft
Elevation 114 ft Threshold 0 ft Heading 150
Runway 33L Length 10830 ft Width 148 ft
Elevation 113 ft Threshold 0 ft Heading 330
Airport Frequencies
Type ACC Name BALAD ACC Frequency 123.52 MHZ
Type APP Name APP Frequency 128.2 MHZ
Type ATIS Name INFO Frequency 127.25 MHZ
Type DEP Name DEP Frequency 131.9 MHZ
Type GND Name GND Frequency 121.7 MHZ
Type HEL Name HELO Frequency 131.7 MHZ
Type PMSV Name METRO Frequency 116.15 MHZ
Type POST Name COMD POST Frequency 133.5 MHZ
Type RDO Name RDO Frequency 127.35 MHZ
Type TWR Name TWR Frequency 118.7 MHZ
Airport Navaids
Type TACAN Name Baghdad Frequency 133700 KHZ
Airport Weather Information & NOTAM
ADDS - METARS form results

(2114 UTC 16 August 2018)
 
METAR text: ORBI 162100Z 28007KT CAVOK 33/08 Q1001 NOSIG
Conditions at: ORBI (BAGHDAD INTL , IQ) observed 2100 UTC 16 August 2018
Temperature: 33.0°C (91°F)
Dewpoint: 8.0°C (46°F) [RH = 21%]
Pressure (altimeter): 29.56 inches Hg (1001.0 mb)
Winds: from the W (280 degrees) at 8 MPH (7 knots; 3.6 m/s)
Visibility: 6 or more miles (10+ km)
Ceiling: ceiling and visibility are OK
Clouds: unknown
Weather: no significant weather observed at this time